Time;durP1;ratioP1;P1;durP2;ratioP2;P2;SDS_P1;SDS_P2;PMS_P1;PMS_P2;Temp;Humidity;BMP_temperature;BMP_pressure;BME280_temperature;BME280_humidity;BME280_pressure;Samples;Min_cycle;Max_cycle;Signal;HPM_P1;HPM_P2
2021/11/18 00:00:14;;;;;;;4.50;1.60;;;;;;;17.41;57.94;102661.47;4793838;29;20057;-85
2021/11/18 00:02:40;;;;;;;4.60;1.77;;;;;;;17.41;58.12;102647.59;4822876;29;20033;-86
2021/11/18 00:05:08;;;;;;;7.57;2.20;;;;;;;17.40;58.27;102646.72;4808335;29;20034;-86
2021/11/18 00:07:34;;;;;;;5.25;1.98;;;;;;;17.41;58.13;102639.78;4823512;29;20058;-86
2021/11/18 00:09:59;;;;;;;6.22;2.05;;;;;;;17.40;58.09;102641.50;4793346;29;20057;-86
2021/11/18 00:12:26;;;;;;;6.20;2.20;;;;;;;17.41;58.05;102658.00;4808013;29;20066;-86
2021/11/18 00:14:51;;;;;;;5.15;2.10;;;;;;;17.41;58.18;102653.66;4808359;29;20063;-86
2021/11/18 00:17:17;;;;;;;5.88;2.03;;;;;;;17.40;58.02;102649.31;4808347;29;20030;-86
2021/11/18 00:19:42;;;;;;;5.22;2.00;;;;;;;17.39;57.94;102637.13;4808397;29;20030;-86
2021/11/18 00:22:09;;;;;;;6.43;2.08;;;;;;;17.39;57.80;102642.34;4808344;29;20031;-86
2021/11/18 00:24:34;;;;;;;6.82;2.10;;;;;;;17.39;58.09;102633.66;4793836;29;20038;-86
2021/11/18 00:27:00;;;;;;;5.93;2.28;;;;;;;17.40;57.97;102635.44;4793210;29;20053;-86
2021/11/18 00:29:25;;;;;;;6.07;2.20;;;;;;;17.38;57.92;102632.78;4808035;29;20036;-86
2021/11/18 00:31:51;;;;;;;5.18;1.90;;;;;;;17.38;57.90;102634.53;4824294;29;20103;-86
2021/11/18 00:34:16;;;;;;;6.07;2.30;;;;;;;17.38;57.97;102635.41;4793112;29;20034;-86
2021/11/18 00:36:42;;;;;;;5.30;2.20;;;;;;;17.37;57.87;102641.44;4793062;29;20042;-84
2021/11/18 00:39:07;;;;;;;6.15;2.25;;;;;;;17.38;57.88;102644.94;4793055;29;20035;-85
2021/11/18 00:41:35;;;;;;;6.32;2.20;;;;;;;17.37;58.01;102650.97;4824276;29;20030;-85
2021/11/18 00:44:00;;;;;;;5.20;2.13;;;;;;;17.38;57.80;102648.41;4808050;29;20029;-85
2021/11/18 00:46:32;;;;;;;7.03;2.40;;;;;;;17.38;57.96;102651.00;4809206;29;20030;-84
2021/11/18 00:48:57;;;;;;;5.70;1.98;;;;;;;17.37;58.08;102654.44;4812394;29;20452;-85
2021/11/18 00:51:23;;;;;;;5.63;1.98;;;;;;;17.38;58.06;102647.53;4808121;29;20084;-86
2021/11/18 00:53:52;;;;;;;4.13;1.73;;;;;;;17.36;57.84;102647.50;4823383;29;20034;-85
2021/11/18 00:56:23;;;;;;;6.85;2.33;;;;;;;17.37;58.03;102654.44;4824077;29;20034;-85
2021/11/18 00:58:50;;;;;;;4.88;2.13;;;;;;;17.37;57.96;102645.75;4827634;29;20030;-85
2021/11/18 01:01:21;;;;;;;7.60;2.15;;;;;;;17.37;58.05;102654.44;4809512;29;20622;-79
2021/11/18 01:03:47;;;;;;;7.05;2.05;;;;;;;17.38;57.91;102655.34;4793983;29;20038;-85
2021/11/18 01:06:12;;;;;;;6.43;2.00;;;;;;;17.36;57.80;102660.50;4807809;29;20395;-85
2021/11/18 01:08:38;;;;;;;5.35;1.80;;;;;;;17.36;57.53;102664.84;4822920;29;20034;-84
2021/11/18 01:11:22;;;;;;;6.38;2.10;;;;;;;17.36;57.77;102670.06;4792813;29;20027;-85
2021/11/18 01:13:49;;;;;;;4.40;1.95;;;;;;;17.37;57.89;102663.97;4822988;29;20121;-83
2021/11/18 01:16:18;;;;;;;4.47;1.80;;;;;;;17.36;57.99;102654.44;4825750;29;20047;-85
2021/11/18 01:18:44;;;;;;;6.68;2.20;;;;;;;17.35;57.66;102653.53;4825946;29;20786;-85
2021/11/18 01:21:10;;;;;;;4.95;1.88;;;;;;;17.35;57.71;102655.25;4825937;29;20030;-85
2021/11/18 01:23:39;;;;;;;6.75;2.30;;;;;;;17.36;57.82;102667.44;4811020;29;20054;-85
2021/11/18 01:26:06;;;;;;;5.07;2.00;;;;;;;17.35;57.83;102666.53;4811079;29;20087;-84
2021/11/18 01:28:32;;;;;;;3.90;1.52;;;;;;;17.36;57.88;102664.84;4796056;29;20035;-85
2021/11/18 01:30:58;;;;;;;7.63;2.42;;;;;;;17.35;57.74;102669.16;4810782;29;20040;-84
2021/11/18 01:33:24;;;;;;;5.50;1.83;;;;;;;17.35;57.82;102665.69;4810698;29;20058;-84
2021/11/18 01:35:51;;;;;;;6.47;2.17;;;;;;;17.36;57.86;102667.44;4825734;29;20066;-85
2021/11/18 01:38:17;;;;;;;5.97;2.10;;;;;;;17.35;57.83;102669.16;4825659;29;20034;-85
2021/11/18 01:40:52;;;;;;;5.38;1.95;;;;;;;17.34;57.71;102677.81;4795622;29;20037;-85
2021/11/18 01:43:20;;;;;;;6.50;2.13;;;;;;;17.35;57.82;102682.16;4810547;29;20388;-86
2021/11/18 01:45:46;;;;;;;5.97;2.10;;;;;;;17.35;57.90;102692.56;4810507;29;20026;-85
2021/11/18 01:48:12;;;;;;;5.28;2.13;;;;;;;17.36;57.81;102690.88;4810582;29;20125;-84
2021/11/18 01:50:41;;;;;;;7.45;2.15;;;;;;;17.35;57.55;102695.16;4825734;29;20384;-84
2021/11/18 01:53:12;;;;;;;5.25;1.95;;;;;;;17.35;57.68;102695.16;4795600;29;20050;-83
2021/11/18 01:55:39;;;;;;;6.32;2.10;;;;;;;17.35;57.73;102689.09;4810260;29;20090;-82
2021/11/18 01:58:05;;;;;;;4.00;1.60;;;;;;;17.34;57.62;102689.97;4810222;29;20034;-83
2021/11/18 02:00:52;;;;;;;4.57;1.88;;;;;;;17.34;57.62;102692.56;4795470;29;20034;-84
2021/11/18 02:03:18;;;;;;;5.20;2.10;;;;;;;17.35;57.42;102695.16;4825661;29;20464;-84
2021/11/18 02:06:10;;;;;;;6.28;1.90;;;;;;;17.35;57.76;102700.38;4810278;29;20045;-86
2021/11/18 02:08:36;;;;;;;5.18;2.20;;;;;;;17.35;57.77;102689.09;4824820;29;20043;-86
2021/11/18 02:11:06;;;;;;;4.60;2.00;;;;;;;17.34;57.91;102689.97;4826511;29;20037;-82
2021/11/18 02:13:32;;;;;;;6.00;2.30;;;;;;;17.34;57.65;102693.44;4826281;29;20031;-86
2021/11/18 02:16:00;;;;;;;6.68;2.10;;;;;;;17.34;57.85;102693.44;4810069;29;20034;-85
2021/11/18 02:18:35;;;;;;;5.90;1.83;;;;;;;17.34;57.82;102689.97;4810167;29;20045;-83
2021/11/18 02:21:08;;;;;;;4.53;1.80;;;;;;;17.34;57.80;102689.97;4809946;29;20126;-83
2021/11/18 02:23:36;;;;;;;5.38;2.05;;;;;;;17.34;57.43;102688.22;4824974;29;20439;-83
2021/11/18 02:26:03;;;;;;;4.45;1.92;;;;;;;17.34;57.62;102696.03;4809599;29;20041;-82
2021/11/18 02:28:33;;;;;;;4.63;1.90;;;;;;;17.33;57.55;102696.88;4826152;29;20113;-83
2021/11/18 02:31:01;;;;;;;6.72;2.17;;;;;;;17.33;57.56;102702.06;4824606;29;20086;-84
2021/11/18 02:33:27;;;;;;;6.22;2.20;;;;;;;17.33;57.72;102699.47;4811679;29;20393;-86
2021/11/18 02:35:56;;;;;;;4.78;1.90;;;;;;;17.34;57.63;102696.03;4776783;29;20027;-82
2021/11/18 02:38:22;;;;;;;4.97;1.95;;;;;;;17.34;57.53;102693.44;4807992;29;20058;-85
2021/11/18 02:40:48;;;;;;;5.88;1.88;;;;;;;17.34;57.47;102697.75;4776539;29;20485;-82
2021/11/18 02:43:17;;;;;;;4.35;1.70;;;;;;;17.33;57.35;102694.25;4791460;29;20035;-84
2021/11/18 02:45:47;;;;;;;4.93;1.80;;;;;;;17.33;57.65;102689.06;4806431;29;20035;-84
2021/11/18 02:48:14;;;;;;;5.43;2.00;;;;;;;17.33;57.67;102699.47;4806279;29;20121;-81
2021/11/18 02:50:44;;;;;;;4.53;1.80;;;;;;;17.33;57.59;102688.19;4776696;29;20035;-80
2021/11/18 02:53:12;;;;;;;5.78;1.77;;;;;;;17.34;57.66;102687.34;4806232;29;20023;-84
2021/11/18 02:55:41;;;;;;;5.20;2.08;;;;;;;17.33;57.73;102690.78;4791310;29;20603;-85
2021/11/18 02:58:07;;;;;;;4.22;1.80;;;;;;;17.33;57.40;102686.44;4806203;29;20058;-84
2021/11/18 03:00:39;;;;;;;4.75;1.70;;;;;;;17.33;57.48;102685.59;4791266;29;20062;-81
2021/11/18 03:03:05;;;;;;;6.05;2.10;;;;;;;17.33;57.56;102682.97;4806301;29;20037;-85
2021/11/18 03:05:30;;;;;;;5.07;1.73;;;;;;;17.32;57.47;102682.09;4791055;29;20035;-84
2021/11/18 03:07:58;;;;;;;4.30;1.70;;;;;;;17.32;57.47;102683.84;4776142;29;20038;-85
2021/11/18 03:10:25;;;;;;;4.65;1.70;;;;;;;17.32;57.40;102684.72;4776461;29;20378;-85
2021/11/18 03:12:51;;;;;;;4.93;1.90;;;;;;;17.32;57.61;102682.09;4806109;29;20040;-86
2021/11/18 03:15:16;;;;;;;5.90;1.80;;;;;;;17.32;57.54;102683.84;4797259;29;20035;-82
2021/11/18 03:17:43;;;;;;;6.63;2.17;;;;;;;17.32;57.76;102682.09;4815532;29;20547;-83
2021/11/18 03:20:11;;;;;;;6.90;2.08;;;;;;;17.33;57.78;102676.03;4806207;29;20472;-80
2021/11/18 03:22:37;;;;;;;5.88;1.95;;;;;;;17.33;57.56;102680.38;4791712;29;20026;-82
2021/11/18 03:25:04;;;;;;;6.40;2.25;;;;;;;17.32;57.44;102676.03;4791029;29;20035;-82
2021/11/18 03:27:29;;;;;;;6.03;2.05;;;;;;;17.31;57.11;102680.38;4793846;29;20031;-80
2021/11/18 03:29:55;;;;;;;5.53;1.85;;;;;;;17.32;57.58;102678.63;4799410;29;20037;-80
2021/11/18 03:32:20;;;;;;;4.32;1.80;;;;;;;17.33;57.30;102675.16;4805862;29;20058;-81
2021/11/18 03:34:46;;;;;;;4.93;2.00;;;;;;;17.32;57.46;102671.69;4760952;29;20133;-83
2021/11/18 03:37:11;;;;;;;4.38;1.55;;;;;;;17.31;57.54;102664.75;4790010;29;20035;-81
2021/11/18 03:39:38;;;;;;;4.65;1.90;;;;;;;17.31;57.41;102675.16;4775703;29;20445;-81
2021/11/18 03:42:06;;;;;;;6.57;2.00;;;;;;;17.32;57.02;102678.63;4790647;29;20041;-81
2021/11/18 03:44:32;;;;;;;5.97;1.92;;;;;;;17.31;57.46;102679.47;4805638;29;20027;-85
2021/11/18 03:47:04;;;;;;;4.65;1.75;;;;;;;17.32;57.31;102683.84;4790463;29;20122;-85
2021/11/18 03:49:30;;;;;;;8.05;1.90;;;;;;;17.31;57.45;102676.88;4790524;29;20027;-85
2021/11/18 03:51:57;;;;;;;4.05;1.85;;;;;;;17.31;57.62;102682.97;4805340;29;20095;-85
2021/11/18 03:54:25;;;;;;;5.90;1.83;;;;;;;17.31;57.40;102688.19;4790447;29;20060;-84
2021/11/18 03:56:51;;;;;;;5.70;1.90;;;;;;;17.30;57.35;102689.00;4790490;29;20026;-84
2021/11/18 03:59:27;;;;;;;5.20;1.77;;;;;;;17.30;57.15;102685.53;4775463;29;20126;-81
2021/11/18 04:01:53;;;;;;;5.45;2.00;;;;;;;17.30;57.29;102685.53;4790275;29;20396;-86
2021/11/18 04:04:23;;;;;;;4.95;1.73;;;;;;;17.29;57.42;102679.47;4790198;29;20434;-84
2021/11/18 04:06:49;;;;;;;5.47;1.92;;;;;;;17.29;57.48;102671.66;4790201;29;20133;-85
2021/11/18 04:09:15;;;;;;;5.82;2.05;;;;;;;17.28;57.18;102672.47;4790216;29;20027;-84
2021/11/18 04:11:46;;;;;;;6.82;1.73;;;;;;;17.30;57.48;102680.31;4789997;29;20035;-84
2021/11/18 04:14:13;;;;;;;5.93;1.75;;;;;;;17.27;57.42;102676.81;4805400;29;20365;-83
2021/11/18 04:16:39;;;;;;;4.45;1.60;;;;;;;17.28;57.21;102675.09;4790113;29;20122;-83
2021/11/18 04:19:05;;;;;;;4.30;1.65;;;;;;;17.28;57.43;102667.28;4805029;29;20088;-85
2021/11/18 04:21:32;;;;;;;8.18;2.00;;;;;;;17.28;57.27;102664.69;4775027;29;20431;-83
2021/11/18 04:24:03;;;;;;;5.38;1.65;;;;;;;17.28;57.05;102662.06;4790214;29;20433;-85
2021/11/18 04:26:29;;;;;;;4.93;1.80;;;;;;;17.27;57.13;102661.19;4804943;29;20027;-85
2021/11/18 04:28:55;;;;;;;5.07;1.77;;;;;;;17.27;57.18;102655.13;4805160;29;20050;-85
2021/11/18 04:31:23;;;;;;;5.40;1.80;;;;;;;17.27;57.40;102650.78;4774858;29;20459;-84
2021/11/18 04:33:49;;;;;;;4.78;2.00;;;;;;;17.26;57.07;102658.56;4806417;29;20086;-81
2021/11/18 04:36:17;;;;;;;4.20;1.50;;;;;;;17.25;57.04;102649.88;4789936;29;20182;-80
2021/11/18 04:38:46;;;;;;;6.45;1.85;;;;;;;17.27;56.97;102644.72;4790119;29;20038;-81
2021/11/18 04:41:14;;;;;;;4.97;1.90;;;;;;;17.27;57.10;102647.31;4775316;29;20046;-81
2021/11/18 04:43:41;;;;;;;4.30;1.63;;;;;;;17.27;57.46;102655.13;4804847;29;20027;-83
2021/11/18 04:46:09;;;;;;;4.68;1.77;;;;;;;17.26;57.36;102654.22;4806012;29;20030;-83
2021/11/18 04:48:39;;;;;;;5.72;1.92;;;;;;;17.26;57.12;102656.81;4790660;29;20026;-84
2021/11/18 04:51:07;;;;;;;5.03;1.77;;;;;;;17.26;57.11;102653.34;4793365;29;20035;-84
2021/11/18 04:53:33;;;;;;;4.85;1.83;;;;;;;17.25;57.26;102657.69;4808427;29;20035;-82
2021/11/18 04:55:59;;;;;;;6.05;2.05;;;;;;;17.25;57.15;102660.28;4808586;29;20072;-85
2021/11/18 04:58:24;;;;;;;4.68;1.75;;;;;;;17.25;57.15;102660.28;4778573;29;20459;-85
2021/11/18 05:00:53;;;;;;;4.97;1.67;;;;;;;17.25;57.17;102651.63;4778373;29;20034;-85
2021/11/18 05:03:21;;;;;;;5.72;1.65;;;;;;;17.25;57.06;102655.09;4808517;29;20054;-83
2021/11/18 05:05:48;;;;;;;5.78;1.80;;;;;;;17.26;57.33;102655.94;4793197;29;20113;-84
2021/11/18 05:08:14;;;;;;;3.85;1.45;;;;;;;17.25;57.21;102662.91;4808251;29;20122;-83
2021/11/18 05:10:42;;;;;;;5.53;2.00;;;;;;;17.25;57.16;102659.41;4808115;29;20031;-85
2021/11/18 05:13:09;;;;;;;4.22;1.80;;;;;;;17.24;57.06;102661.13;4807905;29;20035;-85
2021/11/18 05:15:37;;;;;;;5.68;1.90;;;;;;;17.24;57.22;102661.13;4793504;29;20027;-85
2021/11/18 05:18:04;;;;;;;5.10;1.50;;;;;;;17.25;56.99;102668.09;4793135;29;20026;-83
2021/11/18 05:20:29;;;;;;;4.50;1.70;;;;;;;17.25;57.20;102664.63;4778239;29;20082;-85
2021/11/18 05:22:55;;;;;;;3.55;1.50;;;;;;;17.24;57.22;102665.44;4777886;29;20392;-82
2021/11/18 05:25:24;;;;;;;4.68;1.70;;;;;;;17.25;57.28;102657.69;4807865;29;20092;-85
2021/11/18 05:27:50;;;;;;;3.50;1.60;;;;;;;17.24;57.04;102661.13;4792879;29;20023;-83
2021/11/18 05:30:17;;;;;;;4.97;1.90;;;;;;;17.25;57.26;102660.28;4778063;29;20035;-85
2021/11/18 05:32:43;;;;;;;4.15;1.70;;;;;;;17.24;56.99;102662.84;4792634;29;20062;-83
2021/11/18 05:35:10;;;;;;;4.63;1.73;;;;;;;17.24;56.87;102655.03;4808082;29;20109;-87
2021/11/18 05:37:35;;;;;;;5.18;1.80;;;;;;;17.23;57.08;102656.78;4793456;29;20053;-89
2021/11/18 05:40:04;;;;;;;5.80;1.90;;;;;;;17.23;56.97;102659.38;4794307;29;20488;-88
2021/11/18 05:42:29;;;;;;;6.75;2.00;;;;;;;17.22;57.03;102662.84;4781217;29;20046;-89
2021/11/18 05:44:55;;;;;;;4.22;1.50;;;;;;;17.24;57.03;102673.25;4798699;29;20074;-89
2021/11/18 05:47:22;;;;;;;3.72;1.33;;;;;;;17.24;57.08;102668.06;4789452;29;20046;-91
2021/11/18 05:49:47;;;;;;;3.60;1.40;;;;;;;17.24;56.99;102668.06;4799746;29;20037;-90
2021/11/18 05:52:13;;;;;;;5.95;1.60;;;;;;;17.22;57.21;102649.84;4795463;29;20035;-91
2021/11/18 05:54:39;;;;;;;5.07;1.77;;;;;;;17.23;56.97;102659.38;4794530;29;20541;-90
2021/11/18 05:57:05;;;;;;;4.15;1.67;;;;;;;17.23;57.19;102654.16;4796900;29;20031;-93
2021/11/18 05:59:31;;;;;;;4.05;1.83;;;;;;;17.22;57.02;102659.34;4805029;29;20031;-92
2021/11/18 06:01:56;;;;;;;4.00;1.63;;;;;;;17.22;57.05;102664.53;4801292;29;20033;-93
2021/11/18 06:04:22;;;;;;;6.53;1.75;;;;;;;17.22;56.78;102665.44;4781369;29;20038;-91
2021/11/18 06:06:47;;;;;;;5.90;1.65;;;;;;;17.21;56.96;102663.66;4793835;29;20489;-92
2021/11/18 06:09:13;;;;;;;5.55;1.73;;;;;;;17.21;57.06;102668.00;4778482;29;20065;-91
2021/11/18 06:11:41;;;;;;;4.60;1.80;;;;;;;17.21;56.82;102666.28;4808428;29;20473;-92
2021/11/18 06:14:11;;;;;;;3.58;1.55;;;;;;;17.21;57.04;102661.06;4793183;29;20035;-92
2021/11/18 06:16:38;;;;;;;9.35;3.10;;;;;;;17.28;57.25;102662.06;4807930;29;20023;-86
2021/11/18 06:19:05;;;;;;;8.82;3.35;;;;;;;17.33;57.46;102663.03;4792148;29;20060;-82
2021/11/18 06:21:32;;;;;;;9.27;3.30;;;;;;;17.40;57.48;102667.53;4807185;29;20042;-82
2021/11/18 06:23:59;;;;;;;10.98;3.42;;;;;;;17.39;57.41;102681.38;4791853;29;20121;-78
2021/11/18 06:26:27;;;;;;;10.77;3.20;;;;;;;17.36;57.41;102677.84;4777321;29;20464;-84
2021/11/18 06:28:53;;;;;;;9.27;3.20;;;;;;;17.34;57.41;102675.22;4807235;29;20035;-84
2021/11/18 06:31:18;;;;;;;11.55;2.78;;;;;;;17.34;57.51;102683.03;4776892;29;20035;-83
2021/11/18 06:33:44;;;;;;;9.15;2.78;;;;;;;17.34;57.60;102685.63;4804882;29;20597;-81
2021/11/18 06:36:09;;;;;;;9.23;2.72;;;;;;;17.34;57.61;102680.41;4809923;29;20486;-86
2021/11/18 06:38:38;;;;;;;8.82;2.97;;;;;;;17.34;57.58;102680.41;4794721;29;20180;-83
2021/11/18 06:41:04;;;;;;;8.52;2.65;;;;;;;17.34;57.47;102688.22;4824569;29;20114;-82
2021/11/18 06:43:30;;;;;;;11.65;2.60;;;;;;;17.36;57.67;102696.06;4809399;29;20030;-81
2021/11/18 06:45:59;;;;;;;6.45;2.60;;;;;;;17.35;57.82;102695.16;4809566;29;20479;-78
2021/11/18 06:48:30;;;;;;;8.48;2.58;;;;;;;17.36;57.62;102714.28;4824846;29;20030;-81
2021/11/18 06:50:59;;;;;;;5.95;2.20;;;;;;;17.36;57.39;102714.28;4794956;29;20030;-79
2021/11/18 06:53:25;;;;;;;7.22;2.50;;;;;;;17.35;57.54;102716.00;4809116;29;20038;-81
2021/11/18 06:55:51;;;;;;;7.65;2.60;;;;;;;17.37;57.55;102721.22;4809353;29;20185;-78
2021/11/18 06:58:16;;;;;;;5.65;2.20;;;;;;;17.37;57.72;102721.22;4809330;29;20571;-83
2021/11/18 07:00:41;;;;;;;9.00;2.65;;;;;;;17.37;57.75;102719.50;4794075;29;20062;-82
2021/11/18 07:03:09;;;;;;;9.43;2.10;;;;;;;17.37;57.79;102711.69;4794325;29;20049;-84
2021/11/18 07:05:37;;;;;;;5.10;2.35;;;;;;;17.38;57.75;102716.06;4809130;29;20037;-83
2021/11/18 07:08:04;;;;;;;6.45;2.30;;;;;;;17.37;57.80;102722.09;4809251;29;20038;-82
2021/11/18 07:10:29;;;;;;;5.88;2.17;;;;;;;17.39;57.67;102733.44;4824338;29;20030;-80
2021/11/18 07:12:55;;;;;;;6.72;2.20;;;;;;;17.39;57.69;102730.81;4808051;29;20037;-83
2021/11/18 07:15:21;;;;;;;7.22;2.22;;;;;;;17.39;57.70;102722.16;4793900;29;20038;-78
2021/11/18 07:17:46;;;;;;;8.43;2.40;;;;;;;17.40;57.74;102723.94;4793858;29;20034;-81
2021/11/18 07:20:12;;;;;;;6.88;2.03;;;;;;;17.41;57.78;102720.47;4808878;29;20096;-81
2021/11/18 07:22:39;;;;;;;6.35;2.35;;;;;;;17.39;57.70;102715.22;4824036;29;20037;-81
2021/11/18 07:25:09;;;;;;;6.05;2.28;;;;;;;17.41;57.40;102716.13;4823985;29;20134;-81
2021/11/18 07:27:35;;;;;;;4.90;1.95;;;;;;;17.42;57.80;102715.28;4823965;29;20026;-81
2021/11/18 07:30:00;;;;;;;5.32;2.30;;;;;;;17.42;58.02;102711.78;4793804;29;20053;-79
2021/11/18 07:32:26;;;;;;;6.05;2.20;;;;;;;17.42;57.74;102717.91;4819800;29;20050;-80
2021/11/18 07:34:51;;;;;;;4.35;1.83;;;;;;;17.44;57.74;102724.03;4790353;29;20035;-80
2021/11/18 07:37:17;;;;;;;6.15;2.28;;;;;;;17.45;57.67;102736.16;4790465;29;20031;-79
2021/11/18 07:39:42;;;;;;;5.63;2.10;;;;;;;17.46;57.71;102726.63;4805564;29;20041;-78
2021/11/18 07:42:08;;;;;;;4.20;1.90;;;;;;;17.47;57.86;102715.38;4775704;29;20066;-79
2021/11/18 07:44:33;;;;;;;5.03;1.90;;;;;;;17.48;57.64;102719.72;4805454;29;20131;-78
2021/11/18 07:46:59;;;;;;;7.25;2.03;;;;;;;17.48;57.54;102723.25;4775293;29;20027;-77
2021/11/18 07:49:24;;;;;;;9.52;2.13;;;;;;;17.50;57.42;102732.78;4775124;29;20129;-79
2021/11/18 07:51:50;;;;;;;3.42;1.52;;;;;;;17.51;57.55;102725.03;4805184;29;20047;-80
2021/11/18 07:54:17;;;;;;;5.47;2.20;;;;;;;17.52;57.66;102731.97;4775431;29;20437;-78
2021/11/18 07:56:44;;;;;;;6.97;2.03;;;;;;;17.53;57.66;102733.75;4790278;29;20128;-82
2021/11/18 07:59:10;;;;;;;5.68;1.92;;;;;;;17.54;57.74;102732.88;4805174;29;20107;-85
2021/11/18 08:01:39;;;;;;;4.63;2.20;;;;;;;17.55;57.53;102725.94;4790087;29;20058;-84
2021/11/18 08:04:06;;;;;;;6.85;2.22;;;;;;;17.56;57.73;102732.91;4790020;29;20042;-84
2021/11/18 08:06:32;;;;;;;7.00;1.88;;;;;;;17.57;57.66;102735.56;4805154;29;20069;-85
2021/11/18 08:08:58;;;;;;;4.65;1.90;;;;;;;17.61;57.53;102739.09;4805148;29;20126;-85
2021/11/18 08:11:29;;;;;;;7.13;2.20;;;;;;;17.60;57.62;102730.41;4805164;29;20038;-82
2021/11/18 08:13:56;;;;;;;3.50;1.60;;;;;;;17.62;57.57;102723.50;4790413;29;20033;-85
2021/11/18 08:16:21;;;;;;;6.43;2.00;;;;;;;17.66;57.38;102732.28;4793616;29;20062;-83
2021/11/18 08:18:47;;;;;;;4.13;1.58;;;;;;;17.69;57.36;102727.13;4816577;29;20096;-81
2021/11/18 08:21:13;;;;;;;4.82;1.70;;;;;;;17.71;57.31;102721.94;4807980;29;20060;-80
2021/11/18 08:23:39;;;;;;;5.57;2.13;;;;;;;17.71;57.39;102714.13;4760104;29;20373;-79
2021/11/18 08:26:09;;;;;;;5.72;1.80;;;;;;;17.72;57.48;102710.66;4775321;29;20554;-80
2021/11/18 08:28:35;;;;;;;6.03;2.20;;;;;;;17.82;57.04;102716.13;4806812;29;20114;-79
2021/11/18 08:31:01;;;;;;;6.38;1.67;;;;;;;17.94;56.93;102730.22;4808714;29;20062;-80
2021/11/18 08:33:28;;;;;;;7.47;2.20;;;;;;;17.93;57.02;102723.28;4789943;29;20059;-80
2021/11/18 08:35:53;;;;;;;4.75;1.73;;;;;;;17.95;56.99;102721.56;4790059;29;20069;-80
2021/11/18 08:38:20;;;;;;;3.53;1.60;;;;;;;17.96;57.23;102708.56;4760034;29;20054;-82
2021/11/18 08:41:16;;;;;;;6.78;1.80;;;;;;;18.00;56.87;102706.91;4774815;29;20037;-80
2021/11/18 08:43:46;;;;;;;6.50;1.70;;;;;;;18.01;56.83;102706.06;4785829;29;20047;-78
2021/11/18 08:46:13;;;;;;;3.75;1.40;;;;;;;17.99;56.94;102703.44;4805889;29;20053;-78
2021/11/18 08:48:40;;;;;;;4.15;1.80;;;;;;;18.04;57.00;102708.72;4789314;29;20030;-78
2021/11/18 08:51:06;;;;;;;4.75;1.60;;;;;;;18.07;56.78;102708.75;4804604;29;20027;-79
2021/11/18 08:53:34;;;;;;;4.28;1.48;;;;;;;18.04;56.71;102713.94;4789539;29;20031;-79
2021/11/18 08:56:00;;;;;;;4.30;1.50;;;;;;;18.02;57.05;102713.03;4789450;29;20031;-80
2021/11/18 08:58:30;;;;;;;3.90;1.50;;;;;;;18.07;56.88;102725.28;4805678;29;20035;-80
2021/11/18 09:01:13;;;;;;;5.03;1.67;;;;;;;18.11;56.59;102721.00;4789362;29;20031;-78
2021/11/18 09:03:40;;;;;;;4.50;2.03;;;;;;;18.11;56.77;102720.13;4789357;29;20023;-78
2021/11/18 09:06:08;;;;;;;3.83;1.50;;;;;;;18.09;56.67;102723.59;4804460;29;20454;-78
2021/11/18 09:08:34;;;;;;;4.18;2.03;;;;;;;18.06;56.72;102720.91;4805673;29;20468;-80
2021/11/18 09:11:02;;;;;;;5.60;1.70;;;;;;;18.06;56.78;102720.91;4805716;29;20042;-78
2021/11/18 09:13:27;;;;;;;3.83;1.70;;;;;;;18.06;56.71;102718.31;4804169;29;20062;-78
2021/11/18 09:15:54;;;;;;;3.53;1.58;;;;;;;18.06;56.57;102720.03;4789532;29;20069;-79
2021/11/18 09:18:19;;;;;;;6.13;1.85;;;;;;;18.03;56.77;102719.97;4789382;29;20057;-78
2021/11/18 09:20:48;;;;;;;3.92;1.58;;;;;;;18.02;57.02;102719.09;4789369;29;20035;-78
2021/11/18 09:23:16;;;;;;;4.30;1.75;;;;;;;18.02;56.54;102733.84;4804211;29;20126;-78
2021/11/18 09:25:45;;;;;;;4.80;1.80;;;;;;;18.00;56.77;102733.81;4789323;29;20039;-79
2021/11/18 09:28:13;;;;;;;4.70;1.85;;;;;;;17.97;57.07;102736.38;4789341;29;20027;-77
2021/11/18 09:30:43;;;;;;;3.45;1.63;;;;;;;17.97;56.78;102748.53;4804216;29;20429;-79
2021/11/18 09:33:09;;;;;;;3.03;1.42;;;;;;;17.98;56.91;102750.28;4789061;29;20050;-80
2021/11/18 09:35:41;;;;;;;4.57;1.58;;;;;;;18.00;56.79;102751.19;4789852;29;20183;-77
2021/11/18 09:38:07;;;;;;;4.75;1.73;;;;;;;17.99;56.85;102747.72;4807401;29;20077;-78
2021/11/18 09:40:42;;;;;;;5.13;1.85;;;;;;;18.00;56.69;102739.03;4808585;29;20054;-78
2021/11/18 09:43:29;;;;;;;4.97;1.65;;;;;;;18.00;56.88;102738.16;4807294;29;20037;-78
2021/11/18 09:46:21;;;;;;;4.07;1.75;;;;;;;18.01;56.74;102743.41;4808525;29;20037;-78
2021/11/18 09:49:08;;;;;;;4.53;1.83;;;;;;;18.00;56.80;102745.97;4807408;29;20030;-79
2021/11/18 09:52:10;;;;;;;4.35;1.95;;;;;;;18.00;56.68;102743.38;4807499;29;20038;-77
2021/11/18 09:54:41;;;;;;;4.30;1.77;;;;;;;17.99;56.87;102755.53;4807372;29;20046;-79
2021/11/18 09:57:36;;;;;;;4.88;1.83;;;;;;;17.99;56.77;102759.88;4807434;29;20164;-79
2021/11/18 10:00:15;;;;;;;3.95;1.50;;;;;;;17.99;56.69;102778.97;4790514;29;20039;-79
2021/11/18 10:02:55;;;;;;;5.20;1.90;;;;;;;18.00;57.00;102779.84;4808290;29;20481;-79
2021/11/18 10:05:30;;;;;;;4.43;1.85;;;;;;;18.01;56.67;102773.81;4807185;29;20061;-77
2021/11/18 10:08:06;;;;;;;4.25;1.60;;;;;;;18.02;56.62;102773.81;4807254;29;20034;-80
2021/11/18 10:10:57;;;;;;;3.97;1.70;;;;;;;18.04;56.52;102776.44;4792193;29;20469;-77
2021/11/18 10:13:54;;;;;;;4.35;1.60;;;;;;;18.06;56.47;102772.16;4808158;29;20516;-80
2021/11/18 10:16:23;;;;;;;4.00;1.55;;;;;;;18.06;56.41;102773.03;4792148;29;20441;-78
2021/11/18 10:18:58;;;;;;;6.78;1.90;;;;;;;18.04;56.80;102764.28;4792019;29;20062;-78
2021/11/18 10:21:33;;;;;;;5.18;1.80;;;;;;;18.04;56.46;102766.91;4791929;29;20053;-78
2021/11/18 10:24:06;;;;;;;4.75;1.80;;;;;;;18.02;56.58;102747.75;4808145;29;20491;-78
2021/11/18 10:26:40;;;;;;;2.83;1.48;;;;;;;18.02;56.59;102747.75;4808079;29;20389;-77
2021/11/18 10:29:22;;;;;;;6.07;1.70;;;;;;;18.01;56.67;102732.13;4806970;29;20396;-79
2021/11/18 10:31:57;;;;;;;5.05;1.88;;;;;;;18.03;56.60;102740.81;4806542;29;20023;-77
2021/11/18 10:34:43;;;;;;;4.45;1.63;;;;;;;18.02;56.51;102733.84;4791725;29;20043;-79
2021/11/18 10:37:22;;;;;;;3.92;1.50;;;;;;;18.02;56.36;102731.25;4806791;29;20031;-79
2021/11/18 10:39:59;;;;;;;4.30;1.60;;;;;;;18.01;56.56;102733.00;4791969;29;20034;-80
2021/11/18 10:42:43;;;;;;;4.00;1.65;;;;;;;18.00;56.50;102728.59;4806676;29;20434;-81
2021/11/18 10:45:13;;;;;;;4.43;1.67;;;;;;;18.01;56.68;102735.59;4806688;29;20023;-80
2021/11/18 10:48:25;;;;;;;5.38;1.80;;;;;;;18.01;56.47;102726.91;4807686;29;20061;-81
2021/11/18 10:50:56;;;;;;;4.50;1.73;;;;;;;18.00;56.34;102728.59;4811028;29;20043;-82
2021/11/18 10:53:31;;;;;;;5.82;1.98;;;;;;;18.01;56.55;102726.91;4806642;29;21203;-81
2021/11/18 10:56:00;;;;;;;5.93;1.98;;;;;;;18.00;56.54;102717.31;4806654;29;20114;-81
2021/11/18 10:58:25;;;;;;;4.85;1.75;;;;;;;18.01;56.58;102708.69;4806669;29;20037;-81
2021/11/18 11:01:16;;;;;;;8.25;1.80;;;;;;;18.00;56.44;102707.78;4807082;29;20035;-77
2021/11/18 11:03:44;;;;;;;4.20;1.60;;;;;;;18.01;56.54;102716.50;4795602;29;20041;-78
2021/11/18 11:06:11;;;;;;;5.97;2.00;;;;;;;18.03;56.48;102720.88;4794294;29;20042;-76
2021/11/18 11:08:38;;;;;;;5.72;1.70;;;;;;;18.03;56.32;102715.66;4806471;29;20404;-80
2021/11/18 11:11:42;;;;;;;4.10;1.70;;;;;;;18.05;56.32;102713.06;4806201;29;20026;-80
2021/11/18 11:14:33;;;;;;;3.70;1.38;;;;;;;18.05;56.54;102706.16;4806272;29;20031;-78
2021/11/18 11:17:23;;;;;;;5.22;1.70;;;;;;;18.07;56.54;102698.34;4806130;29;20042;-81
2021/11/18 11:20:06;;;;;;;5.55;1.88;;;;;;;18.09;56.33;102696.63;4805991;29;20027;-81
2021/11/18 11:23:05;;;;;;;5.47;1.75;;;;;;;18.14;56.36;102695.00;4805846;29;20481;-80
2021/11/18 11:26:07;;;;;;;4.32;1.70;;;;;;;18.19;56.22;102685.53;4805771;29;20035;-76
2021/11/18 11:28:52;;;;;;;5.18;1.90;;;;;;;18.22;56.44;102675.16;4805764;29;20492;-77
2021/11/18 11:31:34;;;;;;;3.13;1.58;;;;;;;18.24;56.27;102673.44;4805812;29;20473;-77
2021/11/18 11:34:15;;;;;;;5.03;1.77;;;;;;;18.26;56.31;102689.13;4805619;29;20064;-78